KCKC

Grand Marais / Cook County Airport

Grand Marais, Minnesota, USA
METAR KCKC 230315Z AUTO 24003KT 10SM CLR 15/09 A3007 RMK AO2
Observed Flight Rules
May-23 @ 03:15 UTC (9 minutes ago) Visual Flight Rules
Wind Visibility Clouds
240° at 3 knots 10 miles
  • Clear skies
Temperatures Readings
Current 15°C / 59°F
Dewpoint 9°C / 48°F
Humidity 68%
Altimeter 30.07" Hg
Pressure 1018 hPa
Elevation 548
METAR KCKC 230315Z AUTO 24003KT 10SM CLR 15/09 A3007 RMK AO2
Observed Flight Rules
May-23 @ 03:15 UTC
(9 minutes ago)
VFR
Wind Visibility
240° at 3 knots 10 miles
Clouds
  • Clear skies
Temperature Dewpoint
15°C / 59°F 9°C / 48°F
Humidity Altimeter Pressure
68% 30.07" Hg 1018 hPa